createdAt,value
2023-04-06T00:01:41.064Z,9.67
2023-04-06T00:04:11.426Z,9.40
2023-04-06T00:06:41.640Z,9.40
2023-04-06T00:09:11.865Z,10.83
2023-04-06T00:11:42.265Z,10.87
2023-04-06T00:14:15.068Z,11.97
2023-04-06T00:16:48.021Z,10.13
2023-04-06T00:19:20.668Z,10.07
2023-04-06T00:21:53.439Z,10.07
2023-04-06T00:24:27.015Z,12.37
2023-04-06T00:26:57.597Z,10.40
2023-04-06T00:29:28.017Z,10.60
2023-04-06T00:32:01.469Z,10.53
2023-04-06T00:34:32.083Z,10.73
2023-04-06T00:37:02.403Z,10.57
2023-04-06T00:39:32.644Z,10.67
2023-04-06T00:42:02.945Z,11.70
2023-04-06T00:44:33.221Z,10.70
2023-04-06T00:47:06.133Z,13.13
2023-04-06T00:49:37.254Z,11.77
2023-04-06T00:52:07.776Z,11.60
2023-04-06T00:54:38.308Z,17.57
2023-04-06T00:57:09.363Z,11.67
2023-04-06T00:59:40.229Z,11.93
2023-04-06T01:02:16.797Z,10.33
2023-04-06T01:04:51.824Z,13.47
2023-04-06T01:07:29.586Z,10.60
2023-04-06T01:10:10.820Z,11.07
2023-04-06T01:12:41.828Z,10.63
2023-04-06T01:15:23.409Z,10.37
2023-04-06T01:17:58.164Z,14.20
2023-04-06T01:20:28.625Z,10.27
2023-04-06T01:23:01.848Z,11.87
2023-04-06T01:25:32.649Z,12.97
2023-04-06T01:28:11.950Z,12.63
2023-04-06T01:30:58.654Z,10.70
2023-04-06T01:33:44.026Z,12.13
2023-04-06T01:36:19.246Z,12.03
2023-04-06T01:39:00.488Z,12.90
2023-04-06T01:41:38.115Z,13.53
2023-04-06T01:44:08.999Z,13.60
2023-04-06T01:46:39.717Z,14.20
2023-04-06T01:49:11.566Z,14.77
2023-04-06T01:51:44.647Z,13.77
2023-04-06T01:54:19.598Z,11.83
2023-04-06T01:57:16.961Z,11.17
2023-04-06T01:59:54.639Z,15.43
2023-04-06T02:02:47.947Z,10.50
2023-04-06T02:05:24.867Z,13.73
2023-04-06T02:07:58.040Z,15.73
2023-04-06T02:10:42.289Z,11.37
2023-04-06T02:13:22.173Z,11.03
2023-04-06T02:15:58.664Z,15.13
2023-04-06T02:18:30.938Z,12.60
2023-04-06T02:21:01.781Z,13.10
2023-04-06T02:23:32.000Z,15.90
2023-04-06T02:26:04.821Z,14.73
2023-04-06T02:28:35.608Z,12.40
2023-04-06T02:31:06.125Z,12.07
2023-04-06T02:33:36.498Z,12.43
2023-04-06T02:36:09.309Z,14.23
2023-04-06T02:38:39.835Z,12.23
2023-04-06T02:41:15.152Z,12.13
2023-04-06T02:43:45.570Z,14.33
2023-04-06T02:46:26.969Z,12.10
2023-04-06T02:48:57.546Z,15.33
2023-04-06T02:51:32.641Z,12.43
2023-04-06T02:54:12.666Z,11.87
2023-04-06T02:56:47.050Z,11.77
2023-04-06T02:59:17.623Z,14.13
2023-04-06T03:01:57.103Z,12.30
2023-04-06T03:04:27.576Z,18.90
2023-04-06T03:07:01.341Z,13.20
2023-04-06T03:09:41.410Z,12.33
2023-04-06T03:12:14.304Z,12.67
2023-04-06T03:15:04.483Z,14.17
2023-04-06T03:17:35.002Z,11.43
2023-04-06T03:20:09.946Z,13.73
2023-04-06T03:22:40.289Z,13.63
2023-04-06T03:25:13.624Z,15.10
2023-04-06T03:27:49.378Z,12.43
2023-04-06T03:30:22.456Z,14.33
2023-04-06T03:32:52.758Z,12.90
2023-04-06T03:35:25.049Z,13.27
2023-04-06T03:37:55.233Z,15.87
2023-04-06T03:40:26.186Z,12.60
2023-04-06T03:42:59.003Z,18.93
2023-04-06T03:45:29.225Z,19.53
2023-04-06T03:47:59.470Z,15.33
2023-04-06T03:50:30.042Z,14.80
2023-04-06T03:53:00.407Z,14.67
2023-04-06T03:55:31.552Z,13.03
2023-04-06T03:58:04.355Z,14.47
2023-04-06T04:00:34.599Z,17.93
2023-04-06T04:03:04.886Z,13.27
2023-04-06T04:05:35.120Z,13.03
2023-04-06T04:08:05.448Z,19.17
2023-04-06T04:10:35.731Z,14.67
2023-04-06T04:13:08.505Z,18.20
2023-04-06T04:15:39.186Z,14.60
2023-04-06T04:18:09.393Z,12.37
2023-04-06T04:20:39.637Z,15.57
2023-04-06T04:23:10.266Z,16.50
2023-04-06T04:25:40.526Z,17.47
2023-04-06T04:28:13.753Z,14.20
2023-04-06T04:30:45.583Z,17.47
2023-04-06T04:33:17.425Z,12.53
2023-04-06T04:35:48.937Z,13.17
2023-04-06T04:38:22.793Z,17.90
2023-04-06T04:40:56.508Z,13.93
2023-04-06T04:43:30.779Z,15.83
2023-04-06T04:46:05.583Z,12.60
2023-04-06T04:48:41.575Z,14.73
2023-04-06T04:51:12.650Z,16.47
2023-04-06T04:53:58.182Z,15.73
2023-04-06T04:56:33.075Z,21.87
2023-04-06T04:59:31.016Z,16.33
2023-04-06T05:02:12.014Z,12.40
2023-04-06T05:04:55.103Z,12.80
2023-04-06T05:07:29.587Z,13.97
2023-04-06T05:10:02.358Z,19.83
2023-04-06T05:12:38.440Z,18.03
2023-04-06T05:15:14.623Z,13.80
2023-04-06T05:17:45.593Z,12.13
2023-04-06T05:20:20.351Z,12.77
2023-04-06T05:22:53.752Z,13.60
2023-04-06T05:25:26.647Z,11.67
2023-04-06T05:28:03.238Z,13.17
2023-04-06T05:30:55.056Z,11.70
2023-04-06T05:33:28.229Z,9.13
2023-04-06T05:36:15.568Z,9.30
2023-04-06T05:38:51.452Z,9.43
2023-04-06T05:41:35.811Z,15.07
2023-04-06T05:44:05.993Z,9.80
2023-04-06T05:46:40.939Z,10.23
2023-04-06T05:49:15.607Z,11.40
2023-04-06T05:51:48.949Z,9.97
2023-04-06T05:54:19.335Z,10.77
2023-04-06T05:56:49.888Z,9.40
2023-04-06T05:59:20.284Z,9.33
2023-04-06T06:05:51.533Z,9.70
2023-04-06T06:08:28.987Z,10.07
2023-04-06T06:11:00.492Z,8.93
2023-04-06T06:13:33.369Z,9.60
2023-04-06T06:16:08.531Z,9.07
2023-04-06T06:18:47.750Z,9.23
2023-04-06T06:21:18.281Z,10.50
2023-04-06T06:23:49.471Z,8.73
2023-04-06T06:26:24.684Z,8.80
2023-04-06T06:28:57.167Z,61.90
2023-04-06T06:31:27.860Z,8.47
2023-04-06T06:34:01.253Z,8.60
2023-04-06T06:36:32.826Z,8.87
2023-04-06T06:39:05.211Z,8.50
2023-04-06T06:41:35.411Z,11.63
2023-04-06T06:44:06.961Z,7.70
2023-04-06T06:46:38.725Z,10.53
2023-04-06T06:49:13.429Z,9.20
2023-04-06T06:51:43.609Z,8.40
2023-04-06T06:54:13.909Z,8.10
2023-04-06T06:56:44.065Z,7.53
2023-04-06T06:59:17.355Z,7.73
2023-04-06T07:01:48.580Z,9.48
2023-04-06T07:04:21.425Z,10.68
2023-04-06T07:06:51.766Z,7.22
2023-04-06T07:09:21.984Z,7.80
2023-04-06T07:11:52.137Z,8.85
2023-04-06T07:14:22.313Z,9.32
2023-04-06T07:16:52.779Z,8.55
2023-04-06T07:19:25.623Z,7.97
2023-04-06T07:21:55.796Z,7.68
2023-04-06T07:24:25.928Z,6.88
2023-04-06T07:27:06.498Z,6.65
2023-04-06T07:29:51.721Z,7.50
2023-04-06T07:32:23.294Z,6.88
2023-04-06T07:34:56.271Z,6.45
2023-04-06T07:37:26.456Z,7.05
2023-04-06T07:39:56.943Z,6.60
2023-04-06T07:42:27.171Z,6.47
2023-04-06T07:44:57.991Z,7.35
2023-04-06T07:47:28.636Z,5.97
2023-04-06T07:50:01.774Z,7.25
2023-04-06T07:52:33.134Z,6.00
2023-04-06T07:55:04.193Z,6.43
2023-04-06T07:57:34.358Z,5.78
2023-04-06T08:00:04.960Z,5.75
2023-04-06T08:02:42.389Z,6.38
2023-04-06T08:05:15.708Z,6.38
2023-04-06T08:07:45.968Z,5.32
2023-04-06T08:10:16.120Z,7.32
2023-04-06T08:12:46.271Z,6.32
2023-04-06T08:15:16.627Z,8.90
2023-04-06T08:17:46.872Z,5.82
2023-04-06T08:20:20.043Z,5.80
2023-04-06T08:22:52.221Z,5.22
2023-04-06T08:25:23.683Z,4.90
2023-04-06T08:27:54.016Z,5.32
2023-04-06T08:30:24.217Z,4.32
2023-04-06T08:32:54.438Z,4.22
2023-04-06T08:35:27.243Z,4.18
2023-04-06T08:37:57.387Z,4.63
2023-04-06T08:40:27.551Z,4.00
2023-04-06T08:42:59.999Z,3.90
2023-04-06T08:45:33.332Z,4.28
2023-04-06T08:48:04.427Z,4.63
2023-04-06T08:50:37.848Z,5.57
2023-04-06T08:53:09.891Z,3.83
2023-04-06T08:55:40.794Z,3.88
2023-04-06T08:58:12.345Z,4.07
2023-04-06T09:00:43.463Z,3.47
2023-04-06T09:03:17.211Z,4.07
2023-04-06T09:05:51.463Z,4.60
2023-04-06T09:08:21.659Z,3.83
2023-04-06T09:10:53.267Z,4.13
2023-04-06T09:13:23.478Z,5.18
2023-04-06T09:16:03.060Z,4.65
2023-04-06T09:18:34.052Z,4.30
2023-04-06T09:21:10.569Z,4.40
2023-04-06T09:23:41.170Z,3.60
2023-04-06T09:26:13.917Z,3.72
2023-04-06T09:28:51.696Z,4.43
2023-04-06T09:31:28.104Z,6.47
2023-04-06T09:33:59.106Z,5.67
2023-04-06T09:36:39.610Z,4.50
2023-04-06T09:39:10.011Z,5.10
2023-04-06T09:41:40.885Z,3.60
2023-04-06T09:44:13.107Z,4.03
2023-04-06T09:46:57.793Z,3.22
2023-04-06T09:49:37.726Z,3.97
2023-04-06T09:52:12.969Z,3.60
2023-04-06T09:54:44.134Z,6.63
2023-04-06T09:57:22.512Z,4.60
2023-04-06T10:00:00.000Z,3.87
2023-04-06T10:02:38.948Z,3.70
2023-04-06T10:05:13.717Z,5.00
2023-04-06T10:07:59.644Z,3.20
2023-04-06T10:10:32.153Z,2.70
2023-04-06T10:13:02.680Z,2.63
2023-04-06T10:15:33.566Z,4.40
2023-04-06T10:18:05.082Z,3.23
2023-04-06T10:20:42.856Z,4.87
2023-04-06T10:23:18.150Z,2.43
2023-04-06T10:25:57.847Z,2.47
2023-04-06T10:28:28.824Z,3.90
2023-04-06T10:31:03.310Z,4.00
2023-04-06T10:33:33.480Z,3.27
2023-04-06T10:36:14.141Z,2.73
2023-04-06T10:38:46.937Z,2.80
2023-04-06T10:41:23.097Z,3.37
2023-04-06T10:44:00.434Z,3.37
2023-04-06T10:46:31.702Z,3.30
2023-04-06T10:49:02.138Z,2.70
2023-04-06T10:51:34.268Z,2.75
2023-04-06T10:54:08.868Z,2.90
2023-04-06T10:56:41.432Z,2.75
2023-04-06T10:59:12.134Z,2.78
2023-04-06T11:01:42.847Z,2.92
2023-04-06T11:04:16.232Z,2.78
2023-04-06T11:06:51.134Z,2.80
2023-04-06T11:09:38.003Z,3.22
2023-04-06T11:12:09.113Z,3.88
2023-04-06T11:14:40.021Z,5.55
2023-04-06T11:17:10.316Z,4.32
2023-04-06T11:19:40.808Z,2.83
2023-04-06T11:22:13.693Z,2.75
2023-04-06T11:24:46.782Z,2.85
2023-04-06T11:27:17.622Z,3.00
2023-04-06T11:29:50.848Z,3.20
2023-04-06T11:32:26.048Z,3.20
2023-04-06T11:34:56.226Z,2.80
2023-04-06T11:37:30.592Z,3.03
2023-04-06T11:40:04.105Z,3.37
2023-04-06T11:42:34.374Z,4.47
2023-04-06T11:45:04.501Z,5.00
2023-04-06T11:47:37.651Z,4.87
2023-04-06T11:50:13.084Z,4.23
2023-04-06T11:52:44.811Z,3.20
2023-04-06T11:55:19.498Z,4.63
2023-04-06T11:57:50.998Z,5.20
2023-04-06T12:00:22.147Z,3.37
2023-04-06T12:02:53.299Z,4.37
2023-04-06T12:05:26.752Z,4.63
2023-04-06T12:07:58.109Z,4.28
2023-04-06T12:10:33.279Z,3.58
2023-04-06T12:13:03.625Z,4.15
2023-04-06T12:15:33.795Z,3.78
2023-04-06T12:18:03.981Z,3.67
2023-04-06T12:20:35.492Z,3.90
2023-04-06T12:23:05.874Z,3.70
2023-04-06T12:25:38.657Z,3.50
2023-04-06T12:28:08.860Z,3.77
2023-04-06T12:30:40.672Z,3.77
2023-04-06T12:33:10.944Z,4.27
2023-04-06T12:35:41.219Z,3.20
2023-04-06T12:38:11.442Z,2.83
2023-04-06T12:40:44.472Z,4.70
2023-04-06T12:43:14.754Z,2.90
2023-04-06T12:45:44.937Z,3.03
2023-04-06T12:48:15.223Z,3.37
2023-04-06T12:50:45.479Z,3.37
2023-04-06T12:53:15.773Z,4.27
2023-04-06T12:55:48.640Z,3.38
2023-04-06T12:58:19.082Z,3.03
2023-04-06T13:00:49.513Z,3.42
2023-04-06T13:03:20.078Z,3.00
2023-04-06T13:05:51.458Z,4.78
2023-04-06T13:08:24.334Z,3.67
2023-04-06T13:10:57.788Z,3.55
2023-04-06T13:13:29.234Z,2.65
2023-04-06T13:16:05.031Z,3.63
2023-04-06T13:18:37.910Z,3.03
2023-04-06T13:21:08.490Z,6.38
2023-04-06T13:23:38.930Z,2.80
2023-04-06T13:26:12.646Z,4.60
2023-04-06T13:28:42.997Z,2.65
2023-04-06T13:31:16.123Z,2.90
2023-04-06T13:33:46.465Z,3.60
2023-04-06T13:36:18.207Z,2.92
2023-04-06T13:38:49.105Z,2.80
2023-04-06T13:41:26.229Z,5.90
2023-04-06T13:43:56.558Z,3.10
2023-04-06T13:46:26.941Z,3.15
2023-04-06T13:48:57.199Z,2.72
2023-04-06T13:51:27.697Z,2.90
2023-04-06T13:54:00.074Z,3.13
2023-04-06T13:56:33.123Z,3.20
2023-04-06T13:59:03.305Z,3.40
2023-04-06T14:01:33.498Z,3.10
2023-04-06T14:04:03.786Z,2.83
2023-04-06T14:06:37.676Z,2.90
2023-04-06T14:09:09.774Z,2.80
2023-04-06T14:11:42.407Z,4.22
2023-04-06T14:14:12.498Z,2.80
2023-04-06T14:16:45.151Z,3.15
2023-04-06T14:19:16.780Z,3.08
2023-04-06T14:21:49.748Z,3.15
2023-04-06T14:24:23.160Z,3.65
2023-04-06T14:26:58.800Z,3.00
2023-04-06T14:29:29.020Z,3.45
2023-04-06T14:32:33.598Z,3.80
2023-04-06T14:34:54.353Z,3.10
2023-04-06T14:37:24.510Z,3.17
2023-04-06T14:39:54.768Z,4.80
2023-04-06T14:42:28.618Z,3.25
2023-04-06T14:44:58.741Z,3.73
2023-04-06T14:47:29.141Z,3.03
2023-04-06T14:49:59.277Z,3.50
2023-04-06T14:52:33.083Z,3.03
2023-04-06T14:55:03.153Z,3.00
2023-04-06T14:57:38.302Z,3.10
2023-04-06T15:00:10.690Z,3.57
2023-04-06T15:02:41.091Z,5.40
2023-04-06T15:05:12.848Z,4.20
2023-04-06T15:07:44.123Z,3.63
2023-04-06T15:10:14.470Z,5.50
2023-04-06T15:12:48.020Z,2.90
2023-04-06T15:15:22.643Z,3.23
2023-04-06T15:17:52.869Z,3.37
2023-04-06T15:20:23.181Z,4.07
2023-04-06T15:22:53.311Z,5.93
2023-04-06T15:25:23.474Z,3.47
2023-04-06T15:27:56.179Z,3.53
2023-04-06T15:30:26.808Z,3.33
2023-04-06T15:33:03.842Z,3.67
2023-04-06T15:35:35.320Z,3.23
2023-04-06T15:38:06.636Z,3.20
2023-04-06T15:40:46.945Z,3.27
2023-04-06T15:43:20.116Z,3.10
2023-04-06T15:45:52.368Z,3.87
2023-04-06T15:48:25.744Z,3.40
2023-04-06T15:51:00.737Z,3.77
2023-04-06T15:53:30.826Z,3.87
2023-04-06T15:56:06.744Z,2.87
2023-04-06T15:58:42.782Z,3.67
2023-04-06T16:01:19.467Z,4.40
2023-04-06T16:03:52.815Z,7.73
2023-04-06T16:06:23.028Z,4.73
2023-04-06T16:08:53.188Z,4.00
2023-04-06T16:11:23.778Z,3.30
2023-04-06T16:13:56.798Z,3.40
2023-04-06T16:16:27.614Z,3.20
2023-04-06T16:19:02.537Z,3.23
2023-04-06T16:21:36.056Z,4.17
2023-04-06T16:24:09.493Z,3.67
2023-04-06T16:26:40.170Z,4.03
2023-04-06T16:29:13.402Z,3.97
2023-04-06T16:31:50.670Z,3.57
2023-04-06T16:34:23.988Z,6.63
2023-04-06T16:36:56.821Z,3.63
2023-04-06T16:39:26.893Z,3.77
2023-04-06T16:41:57.466Z,5.33
2023-04-06T16:44:30.152Z,4.50
2023-04-06T16:47:00.379Z,3.63
2023-04-06T16:49:33.549Z,4.80
2023-04-06T16:52:06.125Z,3.70
2023-04-06T17:01:03.043Z,4.30
2023-04-06T17:07:33.890Z,3.97
2023-04-06T17:10:32.969Z,5.67
2023-04-06T17:13:06.972Z,5.20
2023-04-06T17:15:37.156Z,6.80
2023-04-06T17:18:10.081Z,6.17
2023-04-06T17:20:40.375Z,7.67
2023-04-06T17:23:11.375Z,4.80
2023-04-06T17:25:43.061Z,4.57
2023-04-06T17:28:13.177Z,4.63
2023-04-06T17:30:43.452Z,6.13
2023-04-06T17:33:17.257Z,5.37
2023-04-06T17:35:51.430Z,7.97
2023-04-06T17:38:23.435Z,5.20
2023-04-06T17:40:57.909Z,6.40
2023-04-06T17:43:28.114Z,7.53
2023-04-06T17:45:58.402Z,7.53
2023-04-06T17:48:31.842Z,6.90
2023-04-06T17:51:02.257Z,6.73
2023-04-06T17:53:47.341Z,7.40
2023-04-06T17:56:19.979Z,8.30
2023-04-06T17:59:51.539Z,8.53
2023-04-06T18:02:29.693Z,9.47
2023-04-06T18:05:02.551Z,11.20
2023-04-06T18:07:32.716Z,9.93
2023-04-06T18:10:24.084Z,9.70
2023-04-06T18:12:57.427Z,10.77
2023-04-06T18:15:31.603Z,9.30
2023-04-06T18:18:03.307Z,8.57
2023-04-06T18:20:36.229Z,8.80
2023-04-06T18:23:06.326Z,8.20
2023-04-06T18:25:41.285Z,8.77
2023-04-06T18:28:12.334Z,10.47
2023-04-06T18:30:42.470Z,11.03
2023-04-06T18:33:26.316Z,11.80
2023-04-06T18:36:19.485Z,10.70
2023-04-06T18:38:51.569Z,10.53
2023-04-06T18:41:22.760Z,11.17
2023-04-06T18:43:52.916Z,12.73
2023-04-06T18:46:24.261Z,13.87
2023-04-06T18:49:20.488Z,10.73
2023-04-06T18:51:53.799Z,11.90
2023-04-06T18:54:24.157Z,12.77
2023-04-06T18:56:54.557Z,12.60
2023-04-06T18:59:26.112Z,13.93
2023-04-06T19:01:56.598Z,14.03
2023-04-06T19:04:29.596Z,18.60
2023-04-06T19:07:05.786Z,15.80
2023-04-06T19:09:38.161Z,12.80
2023-04-06T19:12:50.286Z,14.67
2023-04-06T19:15:29.587Z,17.87
2023-04-06T19:18:00.413Z,18.40
2023-04-06T19:20:30.872Z,30.30
2023-04-06T19:23:06.406Z,17.37
2023-04-06T19:25:39.491Z,16.80
2023-04-06T19:28:11.097Z,24.73
2023-04-06T19:30:41.497Z,22.40
2023-04-06T19:33:38.016Z,18.37
2023-04-06T19:36:12.707Z,16.27
2023-04-06T19:38:46.347Z,23.67
2023-04-06T19:41:27.382Z,19.10
2023-04-06T19:43:58.396Z,17.93
2023-04-06T19:46:31.562Z,15.63
2023-04-06T19:49:18.935Z,19.37
2023-04-06T19:51:50.524Z,15.73
2023-04-06T19:54:27.478Z,18.40
2023-04-06T19:56:59.166Z,19.30
2023-04-06T19:59:40.513Z,17.07
2023-04-06T20:02:11.247Z,20.30
2023-04-06T20:04:44.956Z,17.57
2023-04-06T20:07:24.716Z,21.07
2023-04-06T20:10:02.379Z,17.50
2023-04-06T20:16:46.998Z,16.83
2023-04-06T20:19:27.789Z,16.43
2023-04-06T20:25:30.122Z,12.23
2023-04-06T20:31:42.061Z,12.57
2023-04-06T20:37:27.604Z,13.20
2023-04-06T20:40:21.885Z,17.83
2023-04-06T20:43:39.141Z,15.03
2023-04-06T20:46:36.678Z,27.33
2023-04-06T20:49:36.440Z,20.17
2023-04-06T20:52:50.292Z,15.97
2023-04-06T20:55:34.296Z,17.10
2023-04-06T20:58:41.457Z,17.80
2023-04-06T21:01:21.566Z,14.90
2023-04-06T21:04:04.451Z,18.87
2023-04-06T21:06:55.348Z,21.80
2023-04-06T21:09:37.273Z,21.70
2023-04-06T21:12:12.069Z,18.73
2023-04-06T21:15:00.495Z,15.50
2023-04-06T21:17:49.495Z,13.50
2023-04-06T21:20:34.054Z,19.77
2023-04-06T21:23:24.794Z,23.30
2023-04-06T21:26:20.405Z,15.60
2023-04-06T21:32:23.028Z,16.60
2023-04-06T21:34:59.392Z,33.93
2023-04-06T21:37:33.974Z,20.50
2023-04-06T21:40:05.885Z,14.43
2023-04-06T21:42:43.367Z,16.60
2023-04-06T21:45:14.555Z,24.40
2023-04-06T21:47:44.785Z,28.90
2023-04-06T21:50:15.237Z,16.13
2023-04-06T21:52:58.005Z,30.40
2023-04-06T21:55:28.224Z,25.63
2023-04-06T21:57:58.447Z,17.77
2023-04-06T22:00:28.916Z,18.60
2023-04-06T22:02:59.182Z,19.60
2023-04-06T22:05:29.623Z,15.10
2023-04-06T22:08:03.243Z,18.50
2023-04-06T22:10:33.632Z,17.77
2023-04-06T22:13:03.848Z,14.70
2023-04-06T22:15:35.728Z,15.90
2023-04-06T22:18:09.012Z,16.37
2023-04-06T22:20:39.732Z,19.30
2023-04-06T22:23:14.928Z,20.43
2023-04-06T22:25:45.144Z,20.03
2023-04-06T22:28:15.611Z,16.07
2023-04-06T22:30:45.980Z,18.30
2023-04-06T22:33:16.142Z,15.27
2023-04-06T22:35:46.934Z,15.47
2023-04-06T22:38:20.040Z,14.77
2023-04-06T22:40:50.176Z,16.57
2023-04-06T22:43:20.378Z,14.50
2023-04-06T22:45:50.514Z,13.60
2023-04-06T22:48:32.752Z,16.13
2023-04-06T22:51:03.164Z,13.53
2023-04-06T22:53:36.118Z,18.20
2023-04-06T22:56:06.770Z,15.00
2023-04-06T22:58:37.003Z,20.93
2023-04-06T23:01:07.828Z,16.50
2023-04-06T23:03:38.766Z,17.83
2023-04-06T23:06:09.724Z,17.70
2023-04-06T23:08:42.543Z,18.23
2023-04-06T23:11:12.662Z,14.33
2023-04-06T23:13:42.802Z,14.37
2023-04-06T23:16:12.996Z,16.63
2023-04-06T23:18:43.274Z,15.83
2023-04-06T23:21:13.376Z,16.27
2023-04-06T23:23:46.665Z,27.80
2023-04-06T23:26:17.118Z,17.43
2023-04-06T23:28:47.224Z,15.07
2023-04-06T23:31:17.333Z,17.27
2023-04-06T23:33:47.497Z,16.93
2023-04-06T23:36:17.694Z,16.47
2023-04-06T23:38:53.360Z,13.10
2023-04-06T23:41:23.712Z,12.13
2023-04-06T23:43:56.138Z,12.47
2023-04-06T23:46:26.597Z,15.10
2023-04-06T23:48:57.112Z,14.33
2023-04-06T23:51:27.853Z,17.20
2023-04-06T23:54:00.932Z,13.47
2023-04-06T23:56:31.115Z,13.87
2023-04-06T23:59:01.689Z,15.50
